Time;durP1;ratioP1;P1;durP2;ratioP2;P2;SDS_P1;SDS_P2;PMS_P1;PMS_P2;Temp;Humidity;BMP_temperature;BMP_pressure;BME280_temperature;BME280_humidity;BME280_pressure;Samples;Min_cycle;Max_cycle;Signal;HPM_P1;HPM_P2
2022/05/03 00:00:03;;;;;;;;;10.20;9.60;;;;;;;;5184691;28;8798;-67
2022/05/03 00:02:41;;;;;;;;;11.00;11.00;;;;;;;;5185052;28;8885;-68
2022/05/03 00:05:12;;;;;;;;;12.40;10.20;;;;;;;;5185284;28;9531;-68
2022/05/03 00:07:46;;;;;;;;;12.75;12.75;;;;;;;;5184996;28;8789;-68
2022/05/03 00:10:24;;;;;;;;;11.00;11.00;;;;;;;;5179365;28;11501;-68
2022/05/03 00:13:09;;;;;;;;;12.60;12.60;;;;;;;;5203905;28;8931;-68
2022/05/03 00:15:40;;;;;;;;;9.00;9.00;;;;;;;;5186792;28;8860;-67
2022/05/03 00:18:11;;;;;;;;;13.00;13.00;;;;;;;;5204981;28;8779;-67
2022/05/03 00:20:43;;;;;;;;;9.80;9.80;;;;;;;;5205261;28;9586;-68
2022/05/03 00:23:14;;;;;;;;;6.40;6.00;;;;;;;;5205213;28;8780;-67
2022/05/03 00:25:45;;;;;;;;;11.60;11.60;;;;;;;;5205037;28;9502;-67
2022/05/03 00:28:18;;;;;;;;;9.80;9.60;;;;;;;;5205154;28;8854;-67
2022/05/03 00:30:49;;;;;;;;;9.80;9.00;;;;;;;;5166328;28;8833;-67
2022/05/03 00:33:20;;;;;;;;;8.40;8.40;;;;;;;;5183207;28;8799;-67
2022/05/03 00:35:51;;;;;;;;;6.80;6.80;;;;;;;;5205033;28;8784;-67
2022/05/03 00:38:22;;;;;;;;;10.00;10.00;;;;;;;;5205057;28;8764;-67
2022/05/03 00:40:56;;;;;;;;;6.25;6.25;;;;;;;;5187273;28;8799;-67
2022/05/03 00:44:55;;;;;;;;;10.20;10.20;;;;;;;;5204960;28;11428;-66
2022/05/03 00:47:04;;;;;;;;;8.40;8.40;;;;;;;;5183300;28;8814;-66
2022/05/03 00:49:42;;;;;;;;;10.60;10.20;;;;;;;;5191550;28;8800;-67
2022/05/03 00:52:23;;;;;;;;;9.60;9.60;;;;;;;;5186708;28;8834;-67
2022/05/03 00:55:03;;;;;;;;;12.80;12.00;;;;;;;;5187334;28;8790;-67
2022/05/03 00:57:38;;;;;;;;;10.60;10.60;;;;;;;;5204974;28;8776;-67
2022/05/03 01:00:28;;;;;;;;;13.80;13.40;;;;;;;;5205075;28;8901;-67
2022/05/03 01:03:02;;;;;;;;;14.80;14.80;;;;;;;;5204650;28;8994;-68
2022/05/03 01:05:42;;;;;;;;;16.80;15.40;;;;;;;;5187450;28;8783;-67
2022/05/03 01:08:35;;;;;;;;;10.20;10.20;;;;;;;;5186743;28;9557;-67
2022/05/03 01:11:25;;;;;;;;;11.00;11.00;;;;;;;;5204589;28;8842;-67
2022/05/03 01:14:10;;;;;;;;;5.00;4.00;;;;;;;;5183331;28;8810;-67
2022/05/03 01:17:03;;;;;;;;;19.40;19.40;;;;;;;;5184094;28;8800;-67
2022/05/03 01:19:44;;;;;;;;;21.80;19.60;;;;;;;;5134372;28;8813;-69
2022/05/03 01:22:33;;;;;;;;;21.00;20.80;;;;;;;;5184210;28;8920;-68
2022/05/03 01:25:20;;;;;;;;;18.60;18.00;;;;;;;;5184532;28;8785;-68
2022/05/03 01:28:07;;;;;;;;;15.40;15.20;;;;;;;;5161248;28;8793;-65
2022/05/03 01:30:45;;;;;;;;;15.00;14.00;;;;;;;;5178740;28;9561;-66
2022/05/03 01:33:29;;;;;;;;;16.20;16.20;;;;;;;;5203248;28;9278;-67
2022/05/03 01:36:03;;;;;;;;;16.00;16.00;;;;;;;;5208531;28;8807;-67
2022/05/03 01:38:46;;;;;;;;;15.40;14.40;;;;;;;;5208215;28;8866;-67
2022/05/03 01:41:23;;;;;;;;;16.60;16.60;;;;;;;;5208682;28;9526;-67
2022/05/03 01:44:06;;;;;;;;;17.40;17.40;;;;;;;;5208478;28;8795;-67
2022/05/03 01:46:38;;;;;;;;;20.20;16.80;;;;;;;;5203231;28;8793;-67
2022/05/03 01:52:34;;;;;;;;;20.20;20.20;;;;;;;;5197181;28;8853;-68
2022/05/03 01:55:24;;;;;;;;;17.20;16.60;;;;;;;;5207857;28;8779;-68
2022/05/03 01:58:13;;;;;;;;;18.20;18.20;;;;;;;;5190580;28;9564;-68
2022/05/03 02:00:53;;;;;;;;;17.40;16.60;;;;;;;;5218727;28;8793;-68
2022/05/03 02:03:39;;;;;;;;;14.00;13.80;;;;;;;;5200854;28;8866;-68
2022/05/03 02:06:32;;;;;;;;;19.80;18.00;;;;;;;;5205220;28;8768;-68
2022/05/03 02:09:04;;;;;;;;;19.20;17.60;;;;;;;;5207609;28;8838;-67
2022/05/03 02:11:41;;;;;;;;;14.80;14.80;;;;;;;;5204100;28;9557;-68
2022/05/03 02:17:13;;;;;;;;;15.00;15.00;;;;;;;;5187154;28;9517;-67
2022/05/03 02:20:12;;;;;;;;;38.00;36.00;;;;;;;;5206199;28;8938;-68
2022/05/03 02:23:04;;;;;;;;;20.00;19.20;;;;;;;;5207386;28;8775;-67
2022/05/03 02:25:38;;;;;;;;;21.40;19.20;;;;;;;;5207402;28;8795;-67
2022/05/03 02:28:14;;;;;;;;;17.00;16.20;;;;;;;;5204655;28;8788;-67
2022/05/03 02:30:47;;;;;;;;;10.80;9.60;;;;;;;;5189411;28;8852;-67
2022/05/03 02:33:21;;;;;;;;;11.00;11.00;;;;;;;;5172109;28;9756;-67
2022/05/03 02:35:56;;;;;;;;;16.20;15.40;;;;;;;;5186421;28;8774;-67
2022/05/03 02:38:37;;;;;;;;;12.40;11.80;;;;;;;;5186756;28;8789;-68
2022/05/03 02:41:10;;;;;;;;;16.00;16.00;;;;;;;;5185726;28;8793;-68
2022/05/03 02:43:41;;;;;;;;;3.60;3.60;;;;;;;;5169089;28;8778;-68
2022/05/03 02:46:23;;;;;;;;;17.00;17.00;;;;;;;;5185337;28;9535;-68
2022/05/03 02:49:04;;;;;;;;;20.20;19.40;;;;;;;;5186201;28;8839;-67
2022/05/03 02:51:39;;;;;;;;;15.80;15.60;;;;;;;;5189547;28;8857;-66
2022/05/03 02:54:39;;;;;;;;;12.00;12.00;;;;;;;;5172566;28;8807;-67
2022/05/03 02:57:27;;;;;;;;;12.20;11.60;;;;;;;;5206627;28;8934;-67
2022/05/03 03:02:58;;;;;;;;;10.00;10.00;;;;;;;;5227337;28;8826;-66
2022/05/03 03:05:30;;;;;;;;;6.00;6.00;;;;;;;;5227259;28;8807;-67
2022/05/03 03:08:02;;;;;;;;;13.00;13.00;;;;;;;;5190291;28;8805;-68
2022/05/03 03:10:38;;;;;;;;;12.40;12.40;;;;;;;;5185894;28;8830;-68
2022/05/03 03:13:20;;;;;;;;;13.40;13.40;;;;;;;;5185192;28;8829;-67
2022/05/03 03:15:51;;;;;;;;;12.40;12.40;;;;;;;;5186121;28;8802;-67
2022/05/03 03:18:24;;;;;;;;;13.20;12.00;;;;;;;;5167999;28;8817;-68
2022/05/03 03:20:56;;;;;;;;;9.80;9.80;;;;;;;;5185781;28;9520;-67
2022/05/03 03:23:29;;;;;;;;;7.40;7.00;;;;;;;;5185708;28;8892;-67
2022/05/03 03:26:00;;;;;;;;;10.60;10.60;;;;;;;;5193214;28;8803;-68
2022/05/03 03:28:32;;;;;;;;;8.00;8.00;;;;;;;;5188296;28;8799;-67
2022/05/03 03:31:22;;;;;;;;;9.80;9.80;;;;;;;;5185713;28;8904;-67
2022/05/03 03:33:54;;;;;;;;;7.60;7.60;;;;;;;;5185713;28;8824;-67
2022/05/03 03:36:26;;;;;;;;;13.40;13.40;;;;;;;;5185574;28;8952;-67
2022/05/03 03:38:57;;;;;;;;;9.80;9.40;;;;;;;;5184410;28;8862;-67
2022/05/03 03:41:28;;;;;;;;;9.40;9.00;;;;;;;;5184950;28;8802;-68
2022/05/03 03:44:03;;;;;;;;;49.20;41.60;;;;;;;;5182909;28;8825;-69
2022/05/03 03:46:34;;;;;;;;;8.20;8.20;;;;;;;;5190279;28;8795;-67
2022/05/03 03:49:06;;;;;;;;;8.40;8.40;;;;;;;;5205863;28;8803;-68
2022/05/03 03:51:56;;;;;;;;;8.80;8.80;;;;;;;;5204787;28;9656;-68
2022/05/03 03:54:29;;;;;;;;;10.20;10.20;;;;;;;;5205292;28;8795;-68
2022/05/03 03:57:00;;;;;;;;;11.40;10.60;;;;;;;;5186647;28;8834;-67
2022/05/03 03:59:49;;;;;;;;;9.40;9.40;;;;;;;;5205367;28;8992;-72
2022/05/03 04:02:22;;;;;;;;;11.00;9.60;;;;;;;;5205329;28;8797;-68
2022/05/03 04:04:54;;;;;;;;;12.00;12.00;;;;;;;;5205109;28;8799;-67
2022/05/03 04:07:25;;;;;;;;;12.40;12.40;;;;;;;;5204601;28;8799;-68
2022/05/03 04:09:56;;;;;;;;;11.00;11.00;;;;;;;;5205296;28;8795;-66
2022/05/03 04:12:29;;;;;;;;;8.25;5.50;;;;;;;;5195064;28;8809;-66
2022/05/03 04:15:00;;;;;;;;;14.40;14.40;;;;;;;;5167476;28;9170;-66
2022/05/03 04:17:31;;;;;;;;;12.00;11.00;;;;;;;;5185100;28;8916;-66
2022/05/03 04:20:02;;;;;;;;;16.60;16.60;;;;;;;;5184576;28;11496;-66
2022/05/03 04:22:35;;;;;;;;;16.80;16.20;;;;;;;;5184953;28;8862;-65
2022/05/03 04:25:06;;;;;;;;;13.60;13.60;;;;;;;;5205144;28;8799;-64
2022/05/03 04:27:37;;;;;;;;;11.75;11.75;;;;;;;;5205140;28;8796;-64
2022/05/03 04:30:08;;;;;;;;;14.00;14.00;;;;;;;;5204774;28;9424;-65
2022/05/03 04:32:39;;;;;;;;;7.80;7.80;;;;;;;;5191427;28;9621;-65
2022/05/03 04:35:10;;;;;;;;;12.00;12.00;;;;;;;;5184545;28;8798;-65
2022/05/03 04:37:41;;;;;;;;;8.20;8.20;;;;;;;;5184465;28;8790;-65
2022/05/03 04:40:12;;;;;;;;;9.50;9.50;;;;;;;;5184724;28;8824;-65
2022/05/03 04:42:43;;;;;;;;;11.40;10.80;;;;;;;;5195495;28;9718;-65
2022/05/03 04:45:14;;;;;;;;;10.60;10.60;;;;;;;;5187319;28;8864;-66
2022/05/03 04:47:45;;;;;;;;;9.00;9.00;;;;;;;;5168126;28;8799;-65
2022/05/03 04:50:16;;;;;;;;;10.00;9.00;;;;;;;;5184354;28;8837;-65
2022/05/03 04:52:47;;;;;;;;;8.00;8.00;;;;;;;;5167562;28;11529;-65
2022/05/03 04:55:18;;;;;;;;;9.60;9.60;;;;;;;;5184517;28;8805;-65
2022/05/03 04:57:49;;;;;;;;;9.80;9.80;;;;;;;;5184484;28;8810;-65
2022/05/03 05:00:20;;;;;;;;;7.20;7.20;;;;;;;;5184461;28;9555;-64
2022/05/03 05:02:51;;;;;;;;;8.00;8.00;;;;;;;;5185666;28;8790;-66
2022/05/03 05:05:22;;;;;;;;;9.25;8.75;;;;;;;;5188422;28;11417;-67
2022/05/03 05:07:53;;;;;;;;;10.75;10.75;;;;;;;;5191487;28;9541;-66
2022/05/03 05:10:24;;;;;;;;;11.75;11.75;;;;;;;;5208681;28;11539;-66
2022/05/03 05:13:14;;;;;;;;;9.40;9.20;;;;;;;;5190953;28;8980;-67
2022/05/03 05:15:46;;;;;;;;;9.20;9.20;;;;;;;;5188611;28;8801;-67
2022/05/03 05:18:17;;;;;;;;;6.00;6.00;;;;;;;;5187244;28;8873;-67
2022/05/03 05:20:48;;;;;;;;;21.80;21.80;;;;;;;;5174530;28;8823;-66
2022/05/03 05:23:19;;;;;;;;;5.40;5.40;;;;;;;;5208660;28;8961;-67
2022/05/03 05:25:50;;;;;;;;;4.25;4.00;;;;;;;;5209019;28;9550;-66
2022/05/03 05:28:22;;;;;;;;;4.20;4.20;;;;;;;;5174328;28;8921;-66
2022/05/03 05:30:53;;;;;;;;;3.00;3.00;;;;;;;;5208486;28;8893;-66
2022/05/03 05:33:24;;;;;;;;;0.40;0.40;;;;;;;;5187789;28;8904;-67
2022/05/03 05:35:56;;;;;;;;;2.00;2.00;;;;;;;;5187911;28;8786;-67
2022/05/03 05:38:27;;;;;;;;;16.00;16.00;;;;;;;;5187878;28;8785;-67
2022/05/03 05:40:58;;;;;;;;;2.60;2.60;;;;;;;;5170675;28;9524;-70
2022/05/03 05:43:29;;;;;;;;;2.00;2.00;;;;;;;;5197247;28;8807;-66
2022/05/03 05:46:01;;;;;;;;;2.00;2.00;;;;;;;;5193949;28;9553;-65
2022/05/03 05:48:32;;;;;;;;;2.00;2.00;;;;;;;;5169889;28;10652;-66
2022/05/03 05:51:04;;;;;;;;;3.00;3.00;;;;;;;;5188332;28;9565;-66
2022/05/03 05:53:35;;;;;;;;;4.00;4.00;;;;;;;;5188713;28;10989;-65
2022/05/03 05:56:07;;;;;;;;;3.25;3.25;;;;;;;;5207895;28;8930;-66
2022/05/03 05:58:38;;;;;;;;;4.20;4.20;;;;;;;;5208006;28;9310;-66
2022/05/03 06:01:09;;;;;;;;;3.00;3.00;;;;;;;;5207773;28;8799;-65
2022/05/03 06:03:42;;;;;;;;;4.25;4.00;;;;;;;;5190663;28;8810;-66
2022/05/03 06:06:13;;;;;;;;;2.00;2.00;;;;;;;;5174092;28;8853;-65
2022/05/03 06:08:44;;;;;;;;;3.00;3.00;;;;;;;;5190313;28;8795;-65
2022/05/03 06:11:16;;;;;;;;;2.00;2.00;;;;;;;;5207581;28;11502;-67
2022/05/03 06:13:47;;;;;;;;;2.00;2.00;;;;;;;;5190409;28;8779;-65
2022/05/03 06:16:19;;;;;;;;;3.00;3.00;;;;;;;;5189963;28;8794;-66
2022/05/03 06:18:50;;;;;;;;;3.00;3.00;;;;;;;;5190241;28;8783;-66
2022/05/03 06:21:20;;;;;;;;;2.50;2.50;;;;;;;;5207721;28;8787;-65
2022/05/03 06:24:10;;;;;;;;;3.00;3.00;;;;;;;;5207959;28;9470;-65
2022/05/03 06:26:41;;;;;;;;;3.25;3.25;;;;;;;;5207524;28;8787;-65
2022/05/03 06:29:12;;;;;;;;;3.00;3.00;;;;;;;;5207132;28;8841;-65
2022/05/03 06:31:43;;;;;;;;;2.00;2.00;;;;;;;;5207967;28;8803;-65
2022/05/03 06:34:14;;;;;;;;;2.50;2.50;;;;;;;;5207327;28;10472;-65
2022/05/03 06:36:45;;;;;;;;;3.00;3.00;;;;;;;;5206954;28;8792;-66
2022/05/03 06:39:16;;;;;;;;;3.80;3.80;;;;;;;;5207845;28;9886;-66
2022/05/03 06:42:06;;;;;;;;;4.00;4.00;;;;;;;;5207300;28;8844;-66
2022/05/03 06:44:37;;;;;;;;;3.50;3.50;;;;;;;;5207027;28;8807;-67
2022/05/03 06:47:09;;;;;;;;;6.40;6.40;;;;;;;;5189292;28;8841;-65
2022/05/03 06:50:00;;;;;;;;;2.00;2.00;;;;;;;;5206883;28;8811;-65
2022/05/03 06:52:31;;;;;;;;;7.00;7.00;;;;;;;;5189206;28;8815;-65
2022/05/03 06:55:20;;;;;;;;;5.00;5.00;;;;;;;;5206833;28;8822;-65
2022/05/03 06:58:09;;;;;;;;;3.25;3.00;;;;;;;;5207176;28;8814;-65
2022/05/03 07:00:40;;;;;;;;;3.00;3.00;;;;;;;;5206707;28;8780;-65
2022/05/03 07:03:12;;;;;;;;;5.00;5.00;;;;;;;;5206646;28;8813;-64
2022/05/03 07:05:43;;;;;;;;;2.75;2.75;;;;;;;;5206233;28;8788;-65
2022/05/03 07:08:15;;;;;;;;;4.00;4.00;;;;;;;;5188993;28;8786;-65
2022/05/03 07:10:46;;;;;;;;;4.33;4.33;;;;;;;;5206524;28;8787;-65
2022/05/03 07:13:35;;;;;;;;;5.75;5.75;;;;;;;;5188955;28;11474;-65
2022/05/03 07:16:06;;;;;;;;;3.25;3.25;;;;;;;;5206219;28;8768;-64
2022/05/03 07:24:16;;;;;;;;;4.75;4.75;;;;;;;;5206205;28;8799;-65
2022/05/03 07:26:47;;;;;;;;;6.00;5.50;;;;;;;;5188648;28;8811;-64
2022/05/03 07:29:18;;;;;;;;;4.00;4.00;;;;;;;;5206336;28;8857;-64
2022/05/03 07:31:49;;;;;;;;;3.33;3.33;;;;;;;;5206501;28;8950;-64
2022/05/03 07:34:20;;;;;;;;;4.00;4.00;;;;;;;;5206249;28;8779;-64
2022/05/03 07:36:50;;;;;;;;;2.67;2.67;;;;;;;;5205966;28;8795;-64
2022/05/03 07:39:21;;;;;;;;;4.33;4.33;;;;;;;;5188230;28;10436;-64
2022/05/03 07:42:10;;;;;;;;;5.50;5.50;;;;;;;;5191530;28;9506;-64
2022/05/03 07:44:41;;;;;;;;;4.00;4.00;;;;;;;;5206424;28;8795;-65
2022/05/03 07:47:12;;;;;;;;;4.00;4.00;;;;;;;;5188278;28;9453;-65
2022/05/03 07:50:02;;;;;;;;;5.00;5.00;;;;;;;;5188312;28;11479;-65
2022/05/03 07:52:36;;;;;;;;;5.75;5.75;;;;;;;;5206277;28;8810;-65
2022/05/03 07:55:08;;;;;;;;;6.25;6.25;;;;;;;;5171686;28;8854;-65
2022/05/03 07:57:39;;;;;;;;;5.75;5.75;;;;;;;;5205521;28;8884;-66
2022/05/03 08:00:29;;;;;;;;;4.75;4.75;;;;;;;;5205608;28;8784;-65
2022/05/03 08:03:20;;;;;;;;;4.00;4.00;;;;;;;;5205791;28;8827;-65
2022/05/03 08:05:51;;;;;;;;;4.00;4.00;;;;;;;;5188029;28;8787;-66
2022/05/03 08:08:22;;;;;;;;;6.00;6.00;;;;;;;;5205627;28;8783;-65
2022/05/03 08:10:52;;;;;;;;;5.33;5.33;;;;;;;;5205176;28;8795;-65
2022/05/03 08:13:45;;;;;;;;;5.00;5.00;;;;;;;;5205400;28;8767;-66
2022/05/03 08:16:17;;;;;;;;;4.00;4.00;;;;;;;;5187765;28;8783;-66
2022/05/03 08:18:48;;;;;;;;;5.00;5.00;;;;;;;;5205210;28;8768;-65
2022/05/03 08:21:19;;;;;;;;;7.75;7.75;;;;;;;;5205240;28;8790;-65
2022/05/03 08:23:50;;;;;;;;;6.33;6.33;;;;;;;;5205054;28;9510;-65
2022/05/03 08:26:21;;;;;;;;;7.00;7.00;;;;;;;;5205112;28;9712;-66
2022/05/03 08:28:52;;;;;;;;;3.75;3.75;;;;;;;;5186962;28;8791;-66
2022/05/03 08:31:23;;;;;;;;;5.00;5.00;;;;;;;;5205265;28;8819;-66
2022/05/03 08:33:54;;;;;;;;;4.67;4.67;;;;;;;;5205174;28;8802;-66
2022/05/03 08:36:25;;;;;;;;;4.50;4.50;;;;;;;;5204731;28;11446;-66
2022/05/03 08:42:06;;;;;;;;;5.00;5.00;;;;;;;;5205648;28;8783;-66
2022/05/03 08:44:37;;;;;;;;;5.00;5.00;;;;;;;;5205121;28;8794;-66
2022/05/03 08:47:08;;;;;;;;;2.50;2.50;;;;;;;;5187287;28;8847;-66
2022/05/03 08:49:57;;;;;;;;;4.00;4.00;;;;;;;;5204539;28;8797;-66
2022/05/03 08:52:29;;;;;;;;;5.25;5.25;;;;;;;;5205426;28;8997;-66
2022/05/03 08:55:00;;;;;;;;;3.75;3.75;;;;;;;;5204752;28;8913;-66
2022/05/03 08:57:32;;;;;;;;;4.50;4.50;;;;;;;;5204642;28;8795;-66
2022/05/03 09:00:05;;;;;;;;;5.00;5.00;;;;;;;;5204793;28;8780;-66
2022/05/03 09:02:40;;;;;;;;;2.00;2.00;;;;;;;;5204988;28;8791;-66
2022/05/03 09:05:30;;;;;;;;;8.00;8.00;;;;;;;;5189856;28;8779;-66
2022/05/03 09:08:08;;;;;;;;;3.00;3.00;;;;;;;;5204741;28;8804;-66
2022/05/03 09:10:57;;;;;;;;;4.00;4.00;;;;;;;;5204918;28;8841;-66
2022/05/03 09:13:47;;;;;;;;;4.00;4.00;;;;;;;;5204937;28;8807;-65
2022/05/03 09:16:18;;;;;;;;;3.00;3.00;;;;;;;;5204522;28;8825;-65
2022/05/03 09:18:49;;;;;;;;;3.00;3.00;;;;;;;;5204450;28;8784;-65
2022/05/03 09:24:28;;;;;;;;;2.00;2.00;;;;;;;;5204538;28;8799;-65
2022/05/03 09:27:15;;;;;;;;;4.67;4.67;;;;;;;;5187008;28;8799;-66
2022/05/03 09:30:05;;;;;;;;;4.00;4.00;;;;;;;;5204271;28;11629;-65
2022/05/03 09:32:40;;;;;;;;;2.00;2.00;;;;;;;;5154318;28;8803;-65
2022/05/03 09:35:29;;;;;;;;;3.00;3.00;;;;;;;;5204362;28;8803;-65
2022/05/03 09:38:03;;;;;;;;;1.50;1.50;;;;;;;;5204408;28;8767;-65
2022/05/03 09:40:39;;;;;;;;;3.00;3.00;;;;;;;;5204321;28;8791;-65
2022/05/03 09:43:10;;;;;;;;;4.00;4.00;;;;;;;;5204506;28;8806;-66
2022/05/03 09:45:41;;;;;;;;;3.75;3.75;;;;;;;;5204220;28;8791;-65
2022/05/03 09:48:12;;;;;;;;;4.00;4.00;;;;;;;;5204130;28;8861;-65
2022/05/03 09:50:44;;;;;;;;;4.50;4.50;;;;;;;;5206327;28;8839;-65
2022/05/03 09:53:19;;;;;;;;;3.50;3.50;;;;;;;;5208289;28;8790;-65
2022/05/03 09:55:50;;;;;;;;;3.25;3.25;;;;;;;;5190276;28;8791;-65
2022/05/03 09:58:22;;;;;;;;;3.00;3.00;;;;;;;;5173679;28;8791;-65
2022/05/03 10:00:56;;;;;;;;;1.00;1.00;;;;;;;;5190359;28;8799;-65
2022/05/03 10:03:27;;;;;;;;;3.50;3.50;;;;;;;;5207715;28;8789;-65
2022/05/03 10:05:58;;;;;;;;;4.00;4.00;;;;;;;;5207722;28;8832;-65
2022/05/03 10:08:29;;;;;;;;;4.00;4.00;;;;;;;;5207469;28;11536;-65
2022/05/03 10:11:05;;;;;;;;;3.25;3.25;;;;;;;;5207594;28;8908;-65
2022/05/03 10:13:36;;;;;;;;;4.50;4.50;;;;;;;;5173966;28;8805;-65
2022/05/03 10:22:07;;;;;;;;;6.00;6.00;;;;;;;;5207587;28;8809;-65
2022/05/03 10:24:56;;;;;;;;;6.00;6.00;;;;;;;;5207685;28;8786;-66
2022/05/03 10:27:28;;;;;;;;;5.50;5.50;;;;;;;;5189924;28;8818;-66
2022/05/03 10:30:15;;;;;;;;;4.00;4.00;;;;;;;;5156825;28;8803;-66
2022/05/03 10:33:19;;;;;;;;;5.00;5.00;;;;;;;;5207344;28;8764;-66
2022/05/03 10:35:50;;;;;;;;;4.25;4.25;;;;;;;;5207336;28;9482;-67
2022/05/03 10:38:36;;;;;;;;;3.50;3.50;;;;;;;;5189622;28;8760;-66
2022/05/03 10:41:09;;;;;;;;;3.00;3.00;;;;;;;;5189622;28;8783;-66
2022/05/03 10:44:19;;;;;;;;;4.00;4.00;;;;;;;;5207152;28;9467;-66
2022/05/03 10:46:50;;;;;;;;;5.00;5.00;;;;;;;;5206862;28;8775;-66
2022/05/03 10:49:21;;;;;;;;;5.00;5.00;;;;;;;;5206697;28;8791;-66
2022/05/03 10:51:52;;;;;;;;;4.25;4.25;;;;;;;;5207185;28;8850;-66
2022/05/03 10:54:23;;;;;;;;;4.75;4.75;;;;;;;;5206924;28;8795;-66
2022/05/03 10:57:03;;;;;;;;;3.75;3.75;;;;;;;;5206766;28;8791;-66
2022/05/03 10:59:45;;;;;;;;;4.75;4.75;;;;;;;;5206772;28;8779;-66
2022/05/03 11:02:19;;;;;;;;;2.50;2.50;;;;;;;;5156226;28;8803;-66
2022/05/03 11:05:16;;;;;;;;;2.00;2.00;;;;;;;;5207878;28;8813;-66
2022/05/03 11:08:18;;;;;;;;;15.50;13.25;;;;;;;;5188769;28;9514;-66
2022/05/03 11:10:49;;;;;;;;;11.00;8.00;;;;;;;;5188781;28;8847;-66
2022/05/03 11:13:38;;;;;;;;;3.00;3.00;;;;;;;;5206308;28;8791;-66
2022/05/03 11:16:22;;;;;;;;;2.50;2.50;;;;;;;;5206643;28;8880;-66
2022/05/03 11:18:53;;;;;;;;;4.00;4.00;;;;;;;;5206704;28;8795;-66
2022/05/03 11:21:24;;;;;;;;;1.75;1.75;;;;;;;;5206430;28;8860;-66
2022/05/03 11:23:55;;;;;;;;;6.25;6.25;;;;;;;;5206215;28;8917;-66
2022/05/03 11:26:26;;;;;;;;;8.33;8.33;;;;;;;;5206460;28;8812;-66
2022/05/03 11:28:58;;;;;;;;;7.25;7.25;;;;;;;;5170237;28;8922;-66
2022/05/03 11:31:29;;;;;;;;;5.75;5.75;;;;;;;;5189970;28;9565;-66
2022/05/03 11:34:19;;;;;;;;;9.00;9.00;;;;;;;;5198201;28;8807;-66
2022/05/03 11:36:50;;;;;;;;;33.60;31.80;;;;;;;;5200665;28;8845;-66
2022/05/03 11:39:22;;;;;;;;;6.75;6.75;;;;;;;;5183615;28;8799;-66
2022/05/03 11:41:56;;;;;;;;;3.00;3.00;;;;;;;;5196785;28;8810;-66
2022/05/03 11:44:27;;;;;;;;;4.50;4.50;;;;;;;;5198135;28;8826;-66
2022/05/03 11:47:01;;;;;;;;;6.25;6.25;;;;;;;;5201679;28;8834;-67
2022/05/03 11:49:32;;;;;;;;;5.00;5.00;;;;;;;;5201388;28;8835;-67
2022/05/03 11:58:00;;;;;;;;;4.50;4.50;;;;;;;;5182632;28;8803;-66
2022/05/03 12:00:42;;;;;;;;;6.50;6.50;;;;;;;;5199323;28;8793;-66
2022/05/03 12:03:14;;;;;;;;;8.00;8.00;;;;;;;;5190420;28;8794;-66
2022/05/03 12:05:58;;;;;;;;;4.75;4.75;;;;;;;;5184665;28;8801;-65
2022/05/03 12:08:50;;;;;;;;;4.00;4.00;;;;;;;;5188424;28;8786;-66
2022/05/03 12:11:24;;;;;;;;;4.75;4.75;;;;;;;;5193365;28;8827;-68
2022/05/03 12:13:55;;;;;;;;;7.00;6.75;;;;;;;;5186457;28;8783;-64
2022/05/03 12:16:27;;;;;;;;;26.00;25.75;;;;;;;;5204446;28;8864;-64
2022/05/03 12:19:00;;;;;;;;;7.50;7.50;;;;;;;;5200885;28;8876;-64
2022/05/03 12:21:31;;;;;;;;;5.00;5.00;;;;;;;;5199414;28;8795;-64
2022/05/03 12:24:03;;;;;;;;;6.75;6.75;;;;;;;;5189216;28;8795;-64
2022/05/03 12:26:37;;;;;;;;;6.25;6.25;;;;;;;;5184527;28;8789;-66
2022/05/03 12:29:26;;;;;;;;;8.25;8.25;;;;;;;;5204840;28;8803;-65
2022/05/03 12:32:11;;;;;;;;;6.75;6.75;;;;;;;;5225391;28;8832;-65
2022/05/03 12:34:57;;;;;;;;;8.00;8.00;;;;;;;;5182296;28;8802;-65
2022/05/03 12:37:29;;;;;;;;;8.75;8.75;;;;;;;;5180754;28;8819;-64
2022/05/03 12:40:00;;;;;;;;;7.50;7.50;;;;;;;;5202532;28;8795;-64
2022/05/03 12:42:41;;;;;;;;;7.00;7.00;;;;;;;;5202518;28;8830;-66
2022/05/03 12:45:12;;;;;;;;;8.00;8.00;;;;;;;;5169566;28;8791;-65
2022/05/03 12:47:43;;;;;;;;;7.00;7.00;;;;;;;;5204954;28;8806;-65
2022/05/03 12:50:33;;;;;;;;;8.00;8.00;;;;;;;;5201937;28;8849;-65
2022/05/03 12:53:04;;;;;;;;;9.50;9.50;;;;;;;;5191615;28;8849;-65
2022/05/03 12:55:35;;;;;;;;;6.75;6.75;;;;;;;;5177512;28;8806;-66
2022/05/03 12:58:27;;;;;;;;;8.00;8.00;;;;;;;;5162349;28;8810;-66
2022/05/03 13:00:58;;;;;;;;;9.75;9.75;;;;;;;;5188084;28;8826;-66
2022/05/03 13:03:29;;;;;;;;;5.00;5.00;;;;;;;;5186976;28;8830;-65
2022/05/03 13:06:00;;;;;;;;;7.00;7.00;;;;;;;;5204446;28;8872;-66
2022/05/03 13:08:31;;;;;;;;;6.33;6.33;;;;;;;;5204806;28;10936;-65
2022/05/03 13:11:02;;;;;;;;;4.50;4.50;;;;;;;;5185802;28;8936;-65
2022/05/03 13:13:33;;;;;;;;;8.75;8.75;;;;;;;;5185898;28;9592;-65
2022/05/03 13:16:04;;;;;;;;;22.40;22.00;;;;;;;;5192462;28;8854;-65
2022/05/03 13:18:35;;;;;;;;;7.75;7.75;;;;;;;;5204131;28;8996;-66
2022/05/03 13:21:06;;;;;;;;;10.00;10.00;;;;;;;;5192795;28;8928;-65
2022/05/03 13:23:40;;;;;;;;;10.00;10.00;;;;;;;;5185122;28;11540;-65
2022/05/03 13:26:31;;;;;;;;;2.75;2.75;;;;;;;;5203791;28;8833;-70
2022/05/03 13:29:05;;;;;;;;;0.00;0.00;;;;;;;;5168516;28;8880;-65
2022/05/03 13:31:36;;;;;;;;;7.50;7.50;;;;;;;;5191026;28;8909;-65
2022/05/03 13:34:08;;;;;;;;;8.00;8.00;;;;;;;;5205770;28;8815;-66
2022/05/03 13:42:18;;;;;;;;;7.25;7.25;;;;;;;;5187990;28;8871;-66
2022/05/03 13:44:49;;;;;;;;;6.75;6.75;;;;;;;;5203510;28;8823;-65
2022/05/03 13:47:20;;;;;;;;;7.20;7.20;;;;;;;;5207843;28;8783;-65
2022/05/03 13:49:51;;;;;;;;;10.25;9.75;;;;;;;;5205810;28;8930;-65
2022/05/03 13:52:24;;;;;;;;;20.60;20.60;;;;;;;;5170413;28;9572;-66
2022/05/03 13:54:55;;;;;;;;;12.25;12.25;;;;;;;;5190212;28;8798;-65
2022/05/03 13:57:26;;;;;;;;;8.33;8.33;;;;;;;;5189835;28;8916;-65
2022/05/03 13:59:59;;;;;;;;;8.50;8.50;;;;;;;;5193423;28;11561;-65
2022/05/03 14:02:31;;;;;;;;;7.50;7.50;;;;;;;;5200187;28;8883;-65
2022/05/03 14:05:02;;;;;;;;;6.00;6.00;;;;;;;;5149885;28;8920;-65
2022/05/03 14:07:34;;;;;;;;;8.50;8.00;;;;;;;;5187566;28;8810;-65
2022/05/03 14:10:05;;;;;;;;;8.50;8.50;;;;;;;;5169948;28;8794;-65
2022/05/03 14:12:36;;;;;;;;;54.00;44.20;;;;;;;;5187386;28;9562;-67
2022/05/03 14:15:07;;;;;;;;;12.75;12.75;;;;;;;;5205511;28;9665;-65
2022/05/03 14:17:38;;;;;;;;;9.00;9.00;;;;;;;;5205964;28;8810;-65
2022/05/03 14:20:10;;;;;;;;;5.50;5.50;;;;;;;;5205900;28;8941;-65
2022/05/03 14:22:41;;;;;;;;;7.00;7.00;;;;;;;;5205948;28;9534;-65
2022/05/03 14:25:14;;;;;;;;;7.67;7.67;;;;;;;;5193333;28;8833;-65
2022/05/03 14:27:46;;;;;;;;;8.25;8.25;;;;;;;;5203887;28;11498;-65
2022/05/03 14:30:32;;;;;;;;;6.50;6.50;;;;;;;;5199446;28;8831;-65
2022/05/03 14:33:25;;;;;;;;;7.00;7.00;;;;;;;;5152221;28;8832;-67
2022/05/03 14:35:59;;;;;;;;;10.00;7.75;;;;;;;;5190197;28;8815;-66
2022/05/03 14:38:30;;;;;;;;;9.00;9.00;;;;;;;;5167941;28;8789;-66
2022/05/03 14:41:01;;;;;;;;;7.00;7.00;;;;;;;;5182984;28;8797;-66
2022/05/03 14:43:32;;;;;;;;;7.00;7.00;;;;;;;;5184959;28;11479;-66
2022/05/03 14:46:03;;;;;;;;;9.00;9.00;;;;;;;;5183591;28;8781;-66
2022/05/03 14:48:34;;;;;;;;;9.00;9.00;;;;;;;;5183572;28;8780;-69
2022/05/03 14:51:05;;;;;;;;;10.25;10.25;;;;;;;;5184570;28;9006;-67
2022/05/03 14:53:38;;;;;;;;;6.75;6.75;;;;;;;;5185002;28;8800;-67
2022/05/03 15:04:37;;;;;;;;;8.50;8.50;;;;;;;;5165873;28;8795;-67
2022/05/03 15:07:08;;;;;;;;;9.00;9.00;;;;;;;;5189855;28;8823;-66
2022/05/03 15:09:39;;;;;;;;;8.67;8.67;;;;;;;;5174701;28;8820;-64
2022/05/03 15:12:29;;;;;;;;;9.50;9.50;;;;;;;;5173071;28;8840;-65
2022/05/03 15:15:00;;;;;;;;;7.00;7.00;;;;;;;;5183383;28;8883;-68
2022/05/03 15:17:32;;;;;;;;;7.25;7.25;;;;;;;;5173161;28;8800;-65
2022/05/03 15:20:23;;;;;;;;;9.50;9.50;;;;;;;;5185198;28;8807;-66
2022/05/03 15:25:47;;;;;;;;;9.75;9.75;;;;;;;;5184844;28;8936;-67
2022/05/03 15:28:18;;;;;;;;;4.50;4.50;;;;;;;;5186359;28;8856;-65
2022/05/03 15:30:50;;;;;;;;;11.00;11.00;;;;;;;;5185344;28;9250;-65
2022/05/03 15:33:21;;;;;;;;;7.50;7.50;;;;;;;;5198879;28;8924;-67
2022/05/03 15:35:53;;;;;;;;;7.50;7.50;;;;;;;;5212078;28;8820;-67
2022/05/03 15:38:24;;;;;;;;;7.33;7.33;;;;;;;;5226477;28;8831;-66
2022/05/03 15:41:14;;;;;;;;;8.00;8.00;;;;;;;;5225812;28;11314;-65
2022/05/03 15:43:45;;;;;;;;;6.00;6.00;;;;;;;;5226353;28;8906;-66
2022/05/03 15:46:19;;;;;;;;;7.00;7.00;;;;;;;;5190196;28;8941;-68
2022/05/03 15:48:50;;;;;;;;;6.00;6.00;;;;;;;;5202864;28;8799;-66
2022/05/03 15:51:39;;;;;;;;;8.25;8.25;;;;;;;;5167727;28;8895;-66
2022/05/03 15:54:10;;;;;;;;;7.67;7.67;;;;;;;;5185205;28;8798;-66
2022/05/03 15:56:41;;;;;;;;;7.00;7.00;;;;;;;;5184924;28;8837;-66
2022/05/03 15:59:12;;;;;;;;;8.50;8.50;;;;;;;;5167674;28;8870;-66
2022/05/03 16:02:02;;;;;;;;;12.00;12.00;;;;;;;;5170991;28;8848;-66
2022/05/03 16:04:33;;;;;;;;;10.00;10.00;;;;;;;;5184818;28;8806;-64
2022/05/03 16:07:06;;;;;;;;;7.50;7.50;;;;;;;;5184890;28;8851;-66
2022/05/03 16:09:37;;;;;;;;;13.20;12.40;;;;;;;;5197685;28;8822;-66
2022/05/03 16:12:30;;;;;;;;;10.00;10.00;;;;;;;;5205432;28;8920;-66
2022/05/03 16:15:04;;;;;;;;;6.00;5.75;;;;;;;;5205199;28;8771;-64
2022/05/03 16:17:54;;;;;;;;;13.40;13.00;;;;;;;;5186189;28;8809;-65
2022/05/03 16:20:25;;;;;;;;;30.20;29.40;;;;;;;;5183477;28;8794;-65
2022/05/03 16:22:57;;;;;;;;;12.20;11.60;;;;;;;;5184506;28;8789;-65
2022/05/03 16:25:28;;;;;;;;;9.20;9.20;;;;;;;;5186794;28;8786;-65
2022/05/03 16:27:59;;;;;;;;;10.00;10.00;;;;;;;;5176270;28;8845;-66